Time;durP1;ratioP1;P1;durP2;ratioP2;P2;SDS_P1;SDS_P2;PMS_P1;PMS_P2;Temp;Humidity;BMP_temperature;BMP_pressure;BME280_temperature;BME280_humidity;BME280_pressure;Samples;Min_cycle;Max_cycle;Signal;HPM_P1;HPM_P2
2021/12/12 00:00:12;;;;;;;2.17;0.90;;;;;;;;;;4965064;28;20318;-78
2021/12/12 00:02:55;;;;;;;0.30;0.30;;;;;;;;;;4965661;28;20225;-77
2021/12/12 00:05:23;;;;;;;2.80;1.60;;;;;;;;;;4966226;28;20213;-77
2021/12/12 00:07:50;;;;;;;2.40;1.60;;;;;;;;;;4963435;28;20214;-78
2021/12/12 00:10:22;;;;;;;0.63;0.63;;;;;;;;;;4964672;28;20210;-78
2021/12/12 00:12:51;;;;;;;2.13;1.10;;;;;;;;;;4967575;28;20209;-76
2021/12/12 00:15:19;;;;;;;3.53;2.23;;;;;;;;;;4963349;28;20252;-77
2021/12/12 00:17:47;;;;;;;0.73;0.73;;;;;;;;;;4963614;28;20244;-77
2021/12/12 00:20:17;;;;;;;2.27;2.07;;;;;;;;;;4965817;28;20202;-76
2021/12/12 00:22:46;;;;;;;0.07;0.07;;;;;;;;;;4961705;28;20308;-76
2021/12/12 00:25:14;;;;;;;0.97;0.40;;;;;;;;;;4965342;28;20210;-76
2021/12/12 00:27:44;;;;;;;1.20;1.20;;;;;;;;;;4965823;28;24165;-77
2021/12/12 00:30:12;;;;;;;1.60;1.33;;;;;;;;;;4967123;28;20202;-76
2021/12/12 00:32:40;;;;;;;3.20;1.07;;;;;;;;;;4964169;28;20214;-76
2021/12/12 00:35:09;;;;;;;3.70;1.30;;;;;;;;;;4965250;28;20924;-77
2021/12/12 00:37:37;;;;;;;0.50;0.50;;;;;;;;;;4965309;28;20213;-77
2021/12/12 00:40:08;;;;;;;0.73;0.73;;;;;;;;;;4964161;28;20209;-76
2021/12/12 00:42:36;;;;;;;2.13;1.37;;;;;;;;;;4962554;28;20704;-76
2021/12/12 00:45:08;;;;;;;2.20;2.03;;;;;;;;;;4967555;28;20202;-77
2021/12/12 00:47:35;;;;;;;2.80;1.57;;;;;;;;;;4964753;28;21927;-76
2021/12/12 00:50:05;;;;;;;0.60;0.30;;;;;;;;;;4966055;28;20202;-77
2021/12/12 00:52:33;;;;;;;2.77;1.03;;;;;;;;;;4965534;28;20892;-77
2021/12/12 00:55:01;;;;;;;1.50;1.30;;;;;;;;;;4963327;28;20213;-76
2021/12/12 00:57:29;;;;;;;0.63;0.63;;;;;;;;;;4963618;28;20215;-76
2021/12/12 00:59:57;;;;;;;2.73;1.03;;;;;;;;;;4963434;28;20216;-75
2021/12/12 01:02:29;;;;;;;1.97;0.70;;;;;;;;;;4963235;28;20214;-76
2021/12/12 01:05:00;;;;;;;0.73;0.30;;;;;;;;;;4964526;28;20674;-75
2021/12/12 01:07:30;;;;;;;0.43;0.43;;;;;;;;;;4964772;28;20201;-76
2021/12/12 01:09:59;;;;;;;0.07;0.07;;;;;;;;;;4963348;28;20305;-76
2021/12/12 01:12:28;;;;;;;1.67;0.80;;;;;;;;;;4963215;28;20727;-75
2021/12/12 01:14:57;;;;;;;0.93;0.83;;;;;;;;;;4970381;28;20202;-76
2021/12/12 01:17:28;;;;;;;0.63;0.63;;;;;;;;;;4969108;28;21556;-77
2021/12/12 01:19:58;;;;;;;1.10;1.00;;;;;;;;;;4961678;28;20228;-77
2021/12/12 01:22:29;;;;;;;1.33;1.23;;;;;;;;;;4963602;28;20210;-76
2021/12/12 01:24:58;;;;;;;0.50;0.47;;;;;;;;;;4964272;28;20234;-77
2021/12/12 01:27:25;;;;;;;2.53;1.47;;;;;;;;;;4965724;28;20703;-77
2021/12/12 01:29:53;;;;;;;0.80;0.80;;;;;;;;;;4962676;28;20210;-76
2021/12/12 01:32:27;;;;;;;0.57;0.57;;;;;;;;;;4962044;28;20544;-75
2021/12/12 01:34:58;;;;;;;1.30;1.20;;;;;;;;;;4963666;28;20303;-77
2021/12/12 01:37:40;;;;;;;2.60;2.07;;;;;;;;;;4962519;28;22207;-77
2021/12/12 01:40:16;;;;;;;3.03;1.93;;;;;;;;;;4965820;28;20229;-77
2021/12/12 01:42:45;;;;;;;0.50;0.50;;;;;;;;;;4964262;28;20825;-77
2021/12/12 01:45:15;;;;;;;2.67;1.77;;;;;;;;;;4962159;28;20576;-76
2021/12/12 01:47:46;;;;;;;0.63;0.63;;;;;;;;;;4962382;28;20676;-76
2021/12/12 01:50:16;;;;;;;1.90;0.60;;;;;;;;;;4962766;28;20348;-77
2021/12/12 01:52:45;;;;;;;1.17;1.10;;;;;;;;;;4963499;28;21578;-75
2021/12/12 01:55:21;;;;;;;7.63;0.87;;;;;;;;;;4963487;28;20599;-77
2021/12/12 01:57:48;;;;;;;1.10;0.97;;;;;;;;;;4962096;28;20210;-76
2021/12/12 02:00:18;;;;;;;2.63;1.43;;;;;;;;;;4963053;28;20793;-77
2021/12/12 02:02:46;;;;;;;3.33;2.10;;;;;;;;;;4962704;28;20562;-77
2021/12/12 02:05:17;;;;;;;1.07;1.07;;;;;;;;;;4967162;28;20217;-76
2021/12/12 02:07:47;;;;;;;2.93;1.97;;;;;;;;;;4962766;28;20692;-76
2021/12/12 02:10:16;;;;;;;1.40;1.13;;;;;;;;;;4961967;28;20229;-76
2021/12/12 02:12:43;;;;;;;1.87;1.70;;;;;;;;;;4964163;28;20792;-77
2021/12/12 02:15:13;;;;;;;2.07;1.87;;;;;;;;;;4962701;28;20209;-75
2021/12/12 02:17:44;;;;;;;2.03;1.90;;;;;;;;;;4965204;28;20218;-75
2021/12/12 02:20:18;;;;;;;4.07;2.70;;;;;;;;;;4964218;28;20331;-76
2021/12/12 02:23:01;;;;;;;1.67;1.57;;;;;;;;;;4962720;28;20330;-75
2021/12/12 02:36:33;;;;;;;3.50;2.33;;;;;;;;;;4964508;28;20253;-76
2021/12/12 02:39:05;;;;;;;1.00;0.83;;;;;;;;;;4965493;28;20570;-75
2021/12/12 02:41:32;;;;;;;3.37;2.53;;;;;;;;;;4970251;28;20209;-75
2021/12/12 02:44:02;;;;;;;1.50;1.30;;;;;;;;;;4972407;28;20204;-75
2021/12/12 02:46:33;;;;;;;6.33;2.63;;;;;;;;;;4973288;28;20214;-75
2021/12/12 02:49:06;;;;;;;4.90;3.90;;;;;;;;;;4975373;28;20213;-76
2021/12/12 02:51:37;;;;;;;0.57;0.50;;;;;;;;;;4973584;28;20205;-75
2021/12/12 02:54:06;;;;;;;4.20;3.07;;;;;;;;;;4974854;28;20205;-75
2021/12/12 02:56:36;;;;;;;4.27;3.73;;;;;;;;;;4971766;28;20217;-75
2021/12/12 02:59:06;;;;;;;7.07;3.33;;;;;;;;;;4972136;28;20237;-75
2021/12/12 03:01:35;;;;;;;0.10;0.10;;;;;;;;;;4972445;28;20225;-76
2021/12/12 03:04:03;;;;;;;2.00;1.77;;;;;;;;;;4970457;28;20202;-75
2021/12/12 03:06:32;;;;;;;1.73;1.63;;;;;;;;;;4974533;28;20206;-76
2021/12/12 03:09:01;;;;;;;2.03;1.93;;;;;;;;;;4969204;28;21015;-75
2021/12/12 03:11:30;;;;;;;5.07;3.87;;;;;;;;;;4972937;28;20213;-75
2021/12/12 03:13:58;;;;;;;4.67;2.77;;;;;;;;;;4974163;28;20622;-75
2021/12/12 03:16:26;;;;;;;2.80;2.60;;;;;;;;;;4971938;28;20708;-75
2021/12/12 03:18:55;;;;;;;0.17;0.13;;;;;;;;;;4973443;28;20840;-76
2021/12/12 03:21:30;;;;;;;2.57;1.97;;;;;;;;;;4971006;28;20679;-75
2021/12/12 03:23:58;;;;;;;4.07;2.87;;;;;;;;;;4972420;28;20362;-76
2021/12/12 03:26:26;;;;;;;1.63;1.27;;;;;;;;;;4974120;28;20737;-75
2021/12/12 03:28:57;;;;;;;2.53;2.33;;;;;;;;;;4975636;28;20205;-77
2021/12/12 03:31:25;;;;;;;5.10;3.63;;;;;;;;;;4971188;28;20329;-76
2021/12/12 03:33:53;;;;;;;4.17;3.87;;;;;;;;;;4971808;28;20214;-76
2021/12/12 03:36:21;;;;;;;2.03;1.93;;;;;;;;;;4976392;28;20562;-77
2021/12/12 03:38:51;;;;;;;1.63;1.47;;;;;;;;;;4972377;28;20240;-76
2021/12/12 03:41:19;;;;;;;3.97;2.70;;;;;;;;;;4972830;28;20209;-76
2021/12/12 03:43:51;;;;;;;1.67;1.67;;;;;;;;;;4976937;28;20204;-76
2021/12/12 03:46:19;;;;;;;1.93;1.80;;;;;;;;;;4976077;28;20198;-75
2021/12/12 03:48:47;;;;;;;6.87;5.83;;;;;;;;;;4971808;28;20205;-75
2021/12/12 03:51:21;;;;;;;14.03;7.37;;;;;;;;;;4974307;28;20207;-76
2021/12/12 03:53:48;;;;;;;3.50;2.63;;;;;;;;;;4972385;28;20213;-75
2021/12/12 03:56:16;;;;;;;5.57;4.83;;;;;;;;;;4972547;28;20218;-75
2021/12/12 03:58:44;;;;;;;4.73;4.13;;;;;;;;;;4971691;28;20209;-75
2021/12/12 04:01:13;;;;;;;1.40;1.33;;;;;;;;;;4971040;28;20205;-74
2021/12/12 04:03:42;;;;;;;0.00;0.00;;;;;;;;;;4973209;28;20569;-75
2021/12/12 04:06:12;;;;;;;2.40;2.20;;;;;;;;;;4971203;28;20762;-76
2021/12/12 04:08:41;;;;;;;8.17;4.27;;;;;;;;;;4973511;28;20198;-74
2021/12/12 04:11:13;;;;;;;2.37;1.80;;;;;;;;;;4970151;28;20297;-75
2021/12/12 04:13:40;;;;;;;2.97;2.73;;;;;;;;;;4974776;28;20208;-75
2021/12/12 04:16:08;;;;;;;4.13;3.83;;;;;;;;;;4973982;28;20209;-76
2021/12/12 04:18:36;;;;;;;1.97;1.73;;;;;;;;;;4972721;28;20204;-75
2021/12/12 04:21:06;;;;;;;4.97;3.97;;;;;;;;;;4971091;28;20210;-76
2021/12/12 04:23:33;;;;;;;3.73;2.97;;;;;;;;;;4969926;28;20679;-76
2021/12/12 04:26:09;;;;;;;5.90;3.47;;;;;;;;;;4971519;28;20217;-76
2021/12/12 04:28:36;;;;;;;0.60;0.60;;;;;;;;;;4974850;28;20682;-76
2021/12/12 04:31:04;;;;;;;8.63;6.23;;;;;;;;;;4972443;28;20206;-76
2021/12/12 04:33:31;;;;;;;2.43;1.87;;;;;;;;;;4973725;28;20213;-76
2021/12/12 04:35:59;;;;;;;1.33;1.23;;;;;;;;;;4968358;28;20214;-75
2021/12/12 04:38:28;;;;;;;2.47;1.80;;;;;;;;;;4963476;28;20221;-75
2021/12/12 04:40:55;;;;;;;4.73;4.30;;;;;;;;;;4967922;28;20241;-75
2021/12/12 04:43:22;;;;;;;4.40;3.67;;;;;;;;;;4966050;28;20219;-74
2021/12/12 04:46:04;;;;;;;1.90;1.67;;;;;;;;;;4968569;28;20249;-75
2021/12/12 04:51:21;;;;;;;9.73;5.50;;;;;;;;;;4960630;28;20700;-75
2021/12/12 04:53:51;;;;;;;1.70;1.60;;;;;;;;;;4965574;28;20213;-76
2021/12/12 04:56:21;;;;;;;2.10;1.17;;;;;;;;;;4966802;28;20202;-76
2021/12/12 04:58:53;;;;;;;2.63;2.43;;;;;;;;;;4972887;28;20206;-75
2021/12/12 05:01:23;;;;;;;4.27;2.30;;;;;;;;;;4970100;28;20220;-75
2021/12/12 05:03:52;;;;;;;10.57;3.70;;;;;;;;;;4969248;28;20425;-75
2021/12/12 05:06:22;;;;;;;3.10;2.83;;;;;;;;;;4978573;28;20599;-76
2021/12/12 05:08:54;;;;;;;1.80;1.70;;;;;;;;;;4979040;28;20205;-76
2021/12/12 05:11:25;;;;;;;1.83;1.40;;;;;;;;;;4979378;28;20296;-75
2021/12/12 05:13:54;;;;;;;3.87;2.57;;;;;;;;;;4983455;28;20241;-75
2021/12/12 05:16:24;;;;;;;3.30;3.00;;;;;;;;;;4977815;28;20209;-76
2021/12/12 05:18:54;;;;;;;1.27;1.27;;;;;;;;;;4980072;28;20205;-74
2021/12/12 05:21:25;;;;;;;2.10;1.60;;;;;;;;;;4982142;28;20205;-75
2021/12/12 05:23:58;;;;;;;0.30;0.30;;;;;;;;;;4978818;28;20206;-75
2021/12/12 05:26:28;;;;;;;0.73;0.73;;;;;;;;;;4979743;28;20601;-76
2021/12/12 05:29:00;;;;;;;3.13;2.07;;;;;;;;;;4982218;28;20745;-76
2021/12/12 05:31:28;;;;;;;1.07;0.97;;;;;;;;;;4977886;28;20284;-75
2021/12/12 05:33:56;;;;;;;2.00;1.90;;;;;;;;;;4979186;28;20346;-75
2021/12/12 05:36:24;;;;;;;1.77;1.67;;;;;;;;;;4982994;28;20206;-74
2021/12/12 05:38:52;;;;;;;1.00;1.00;;;;;;;;;;4981194;28;20208;-73
2021/12/12 05:41:22;;;;;;;1.20;1.10;;;;;;;;;;4977798;28;20229;-76
2021/12/12 05:43:50;;;;;;;4.57;1.80;;;;;;;;;;4980503;28;20209;-75
2021/12/12 05:46:19;;;;;;;2.07;1.87;;;;;;;;;;4976284;28;20209;-75
2021/12/12 05:48:47;;;;;;;1.50;1.40;;;;;;;;;;4976561;28;20221;-74
2021/12/12 05:51:16;;;;;;;4.37;3.67;;;;;;;;;;4979337;28;20205;-76
2021/12/12 05:53:43;;;;;;;4.63;3.20;;;;;;;;;;4980058;28;20201;-74
2021/12/12 05:56:11;;;;;;;4.57;3.57;;;;;;;;;;4974590;28;20310;-74
2021/12/12 05:58:40;;;;;;;1.07;0.97;;;;;;;;;;4967613;28;20198;-75
2021/12/12 06:01:09;;;;;;;1.70;1.60;;;;;;;;;;4975206;28;20226;-75
2021/12/12 06:03:38;;;;;;;2.73;2.20;;;;;;;;;;4971312;28;20209;-74
2021/12/12 06:06:06;;;;;;;10.00;5.47;;;;;;;;;;4967496;28;20229;-74
2021/12/12 06:08:35;;;;;;;3.60;2.47;;;;;;;;;;4972115;28;20193;-77
2021/12/12 06:11:03;;;;;;;2.73;1.27;;;;;;;;;;4972164;28;20586;-77
2021/12/12 06:13:31;;;;;;;2.00;1.90;;;;;;;;;;4978332;28;20306;-76
2021/12/12 06:16:00;;;;;;;4.67;4.37;;;;;;;;;;4980556;28;20209;-75
2021/12/12 06:18:30;;;;;;;3.60;0.47;;;;;;;;;;4978851;28;20287;-75
2021/12/12 06:20:58;;;;;;;2.30;2.10;;;;;;;;;;4976646;28;20232;-74
2021/12/12 06:23:27;;;;;;;1.10;1.03;;;;;;;;;;4982738;28;20211;-74
2021/12/12 06:25:55;;;;;;;3.40;2.43;;;;;;;;;;4976113;28;20246;-74
2021/12/12 06:28:25;;;;;;;5.00;4.00;;;;;;;;;;4979046;28;20773;-74
2021/12/12 06:30:52;;;;;;;1.33;1.23;;;;;;;;;;4978694;28;20209;-73
2021/12/12 06:33:21;;;;;;;2.00;1.70;;;;;;;;;;4978152;28;21141;-74
2021/12/12 06:35:49;;;;;;;3.43;3.00;;;;;;;;;;4976030;28;20216;-73
2021/12/12 06:38:17;;;;;;;0.50;0.40;;;;;;;;;;4979323;28;20245;-74
2021/12/12 06:40:45;;;;;;;6.47;4.03;;;;;;;;;;4971552;28;20235;-73
2021/12/12 06:43:14;;;;;;;3.80;3.13;;;;;;;;;;4970928;28;20588;-73
2021/12/12 06:45:42;;;;;;;4.17;2.63;;;;;;;;;;4972590;28;20203;-73
2021/12/12 06:48:11;;;;;;;2.73;0.97;;;;;;;;;;4971194;28;20209;-73
2021/12/12 06:50:41;;;;;;;4.47;3.37;;;;;;;;;;4969114;28;20210;-74
2021/12/12 06:53:09;;;;;;;3.80;3.27;;;;;;;;;;4969798;28;20210;-73
2021/12/12 06:55:43;;;;;;;1.67;1.57;;;;;;;;;;4970272;28;20202;-74
2021/12/12 06:58:10;;;;;;;4.10;3.33;;;;;;;;;;4970194;28;20201;-73
2021/12/12 07:00:39;;;;;;;1.40;1.30;;;;;;;;;;4977350;28;20591;-73
2021/12/12 07:03:06;;;;;;;1.50;1.40;;;;;;;;;;4969922;28;21043;-76
2021/12/12 07:05:34;;;;;;;2.63;2.43;;;;;;;;;;4968815;28;20206;-75
2021/12/12 07:08:04;;;;;;;3.60;1.97;;;;;;;;;;4967259;28;20203;-75
2021/12/12 07:10:33;;;;;;;1.07;0.93;;;;;;;;;;4970258;28;20194;-75
2021/12/12 07:13:02;;;;;;;7.20;3.53;;;;;;;;;;4977435;28;20555;-75
2021/12/12 07:15:32;;;;;;;1.93;1.40;;;;;;;;;;4969217;28;20201;-74
2021/12/12 07:18:01;;;;;;;2.63;1.50;;;;;;;;;;4977178;28;20202;-74
2021/12/12 07:20:28;;;;;;;0.73;0.53;;;;;;;;;;4973108;28;20236;-75
2021/12/12 07:22:57;;;;;;;6.63;3.17;;;;;;;;;;4973316;28;20349;-75
2021/12/12 07:25:26;;;;;;;2.73;2.20;;;;;;;;;;4973067;28;20213;-74
2021/12/12 07:27:55;;;;;;;6.23;3.00;;;;;;;;;;4972707;28;20233;-75
2021/12/12 07:30:22;;;;;;;7.73;2.37;;;;;;;;;;4971974;28;20210;-75
2021/12/12 07:32:50;;;;;;;4.70;1.33;;;;;;;;;;4974615;28;20205;-74
2021/12/12 07:35:18;;;;;;;0.93;0.93;;;;;;;;;;4971688;28;20253;-74
2021/12/12 07:37:46;;;;;;;1.33;1.23;;;;;;;;;;4974374;28;20202;-75
2021/12/12 07:40:14;;;;;;;5.23;3.00;;;;;;;;;;4968148;28;20234;-75
2021/12/12 07:42:45;;;;;;;1.80;1.70;;;;;;;;;;4978647;28;20194;-75
2021/12/12 07:45:14;;;;;;;1.73;1.50;;;;;;;;;;4975923;28;20221;-75
2021/12/12 07:47:41;;;;;;;1.70;1.60;;;;;;;;;;4969205;28;20221;-74
2021/12/12 07:50:11;;;;;;;1.80;1.23;;;;;;;;;;4972031;28;20206;-75
2021/12/12 07:52:38;;;;;;;4.63;3.63;;;;;;;;;;4970225;28;20671;-74
2021/12/12 07:55:06;;;;;;;1.03;1.00;;;;;;;;;;4971200;28;20215;-74
2021/12/12 07:57:34;;;;;;;4.53;3.33;;;;;;;;;;4975192;28;20217;-74
2021/12/12 08:00:06;;;;;;;3.93;3.53;;;;;;;;;;4974296;28;21813;-74
2021/12/12 08:02:34;;;;;;;9.53;4.80;;;;;;;;;;4979736;28;20205;-74
2021/12/12 08:05:01;;;;;;;10.00;3.13;;;;;;;;;;4976720;28;20205;-74
2021/12/12 08:07:29;;;;;;;4.43;4.03;;;;;;;;;;4974010;28;20198;-77
2021/12/12 08:09:58;;;;;;;2.53;2.33;;;;;;;;;;4971890;28;20206;-75
2021/12/12 08:12:27;;;;;;;6.00;4.97;;;;;;;;;;4965555;28;20217;-75
2021/12/12 08:14:55;;;;;;;3.60;2.20;;;;;;;;;;4969007;28;20202;-77
2021/12/12 08:17:24;;;;;;;4.80;3.60;;;;;;;;;;4970951;28;20194;-75
2021/12/12 08:19:52;;;;;;;4.37;1.63;;;;;;;;;;4972286;28;20265;-76
2021/12/12 08:22:20;;;;;;;2.37;1.90;;;;;;;;;;4975577;28;20762;-76
2021/12/12 08:24:47;;;;;;;1.57;1.47;;;;;;;;;;4972268;28;20214;-77
2021/12/12 08:27:15;;;;;;;2.27;1.57;;;;;;;;;;4972424;28;20230;-76
2021/12/12 08:29:43;;;;;;;3.03;2.83;;;;;;;;;;4970771;28;20547;-77
2021/12/12 08:32:12;;;;;;;0.87;0.87;;;;;;;;;;4972096;28;20210;-77
2021/12/12 08:34:41;;;;;;;3.80;1.70;;;;;;;;;;4971880;28;20210;-77
2021/12/12 08:37:09;;;;;;;7.20;2.63;;;;;;;;;;4975163;28;20209;-76
2021/12/12 08:39:37;;;;;;;7.40;5.03;;;;;;;;;;4971457;28;20208;-76
2021/12/12 08:42:05;;;;;;;5.27;3.23;;;;;;;;;;4971150;28;20249;-77
2021/12/12 08:44:33;;;;;;;2.23;2.03;;;;;;;;;;4975359;28;20298;-77
2021/12/12 08:47:01;;;;;;;0.13;0.13;;;;;;;;;;4972158;28;20211;-77
2021/12/12 08:49:31;;;;;;;3.93;3.53;;;;;;;;;;4972964;28;20198;-76
2021/12/12 08:52:01;;;;;;;9.33;5.70;;;;;;;;;;4978330;28;20272;-74
2021/12/12 08:54:31;;;;;;;1.93;1.50;;;;;;;;;;4970933;28;20202;-75
2021/12/12 08:57:04;;;;;;;0.57;0.27;;;;;;;;;;4973307;28;20316;-72
2021/12/12 08:59:33;;;;;;;4.17;3.70;;;;;;;;;;4966999;28;20218;-75
2021/12/12 09:02:01;;;;;;;3.70;2.33;;;;;;;;;;4965511;28;20360;-75
2021/12/12 09:04:29;;;;;;;4.20;3.80;;;;;;;;;;4967305;28;20205;-76
2021/12/12 09:06:58;;;;;;;2.30;2.03;;;;;;;;;;4966424;28;20580;-76
2021/12/12 09:09:29;;;;;;;1.67;1.60;;;;;;;;;;4969834;28;20205;-76
2021/12/12 09:12:01;;;;;;;1.70;1.00;;;;;;;;;;4969644;28;20228;-74
2021/12/12 09:14:32;;;;;;;3.03;2.00;;;;;;;;;;4963342;28;20689;-76
2021/12/12 09:17:04;;;;;;;2.63;1.50;;;;;;;;;;4966030;28;20613;-76
2021/12/12 09:19:34;;;;;;;4.23;3.43;;;;;;;;;;4969496;28;20682;-76
2021/12/12 09:22:05;;;;;;;2.33;2.23;;;;;;;;;;4967492;28;20239;-77
2021/12/12 09:24:44;;;;;;;0.77;0.77;;;;;;;;;;4967121;28;20206;-81
2021/12/12 09:27:13;;;;;;;1.70;1.60;;;;;;;;;;4969335;28;20286;-78
2021/12/12 09:29:43;;;;;;;2.30;1.77;;;;;;;;;;4968111;28;20207;-77
2021/12/12 09:32:12;;;;;;;0.67;0.37;;;;;;;;;;4969795;28;20216;-78
2021/12/12 09:34:41;;;;;;;3.90;0.90;;;;;;;;;;4966247;28;20208;-79
2021/12/12 09:37:11;;;;;;;4.33;2.77;;;;;;;;;;4968370;28;20975;-76
2021/12/12 09:39:43;;;;;;;3.03;2.73;;;;;;;;;;4969124;28;20221;-78
2021/12/12 09:42:20;;;;;;;3.40;2.57;;;;;;;;;;4968099;28;20230;-80
2021/12/12 09:45:03;;;;;;;2.27;2.10;;;;;;;;;;4968758;28;20205;-77
2021/12/12 09:47:58;;;;;;;1.67;1.53;;;;;;;;;;4971157;28;20245;-77
2021/12/12 09:53:28;;;;;;;2.70;2.50;;;;;;;;;;4968268;28;20931;-78
2021/12/12 09:56:02;;;;;;;0.93;0.93;;;;;;;;;;4969274;28;20678;-76
2021/12/12 09:58:33;;;;;;;1.57;1.47;;;;;;;;;;4967111;28;20209;-77
2021/12/12 10:01:03;;;;;;;2.93;1.80;;;;;;;;;;4969091;28;20319;-77
2021/12/12 10:03:35;;;;;;;0.83;0.83;;;;;;;;;;4970021;28;20205;-77
2021/12/12 10:06:08;;;;;;;1.93;1.30;;;;;;;;;;4968146;28;20304;-77
2021/12/12 10:08:45;;;;;;;4.90;2.37;;;;;;;;;;4968324;28;20256;-76
2021/12/12 10:11:19;;;;;;;1.27;1.17;;;;;;;;;;4970134;28;20229;-76
2021/12/12 10:13:48;;;;;;;0.30;0.30;;;;;;;;;;4968525;28;20206;-77
2021/12/12 10:16:19;;;;;;;2.87;2.33;;;;;;;;;;4966133;28;21014;-77
2021/12/12 10:18:55;;;;;;;2.27;1.80;;;;;;;;;;4962013;28;20212;-77
2021/12/12 10:21:27;;;;;;;1.77;1.60;;;;;;;;;;4965153;28;20610;-76
2021/12/12 10:24:11;;;;;;;1.90;1.80;;;;;;;;;;4977170;28;20205;-78
2021/12/12 10:26:41;;;;;;;1.87;1.37;;;;;;;;;;4989552;28;20238;-73
2021/12/12 10:29:12;;;;;;;1.50;0.70;;;;;;;;;;4973894;28;20202;-75
2021/12/12 10:31:42;;;;;;;0.37;0.37;;;;;;;;;;4972863;28;20210;-71
2021/12/12 10:34:11;;;;;;;0.07;0.07;;;;;;;;;;4970873;28;20567;-77
2021/12/12 10:36:41;;;;;;;0.00;0.00;;;;;;;;;;4972577;28;20569;-78
2021/12/12 10:39:10;;;;;;;0.83;0.50;;;;;;;;;;4978388;28;20228;-74
2021/12/12 10:44:11;;;;;;;1.27;1.00;;;;;;;;;;5053225;23;20237;-71
2021/12/12 10:46:45;;;;;;;0.60;0.60;;;;;;;;;;5001592;28;20205;-76
2021/12/12 10:49:15;;;;;;;1.50;0.73;;;;;;;;;;5005033;28;20205;-76
2021/12/12 10:51:45;;;;;;;0.27;0.23;;;;;;;;;;5005140;28;20228;-75
2021/12/12 10:54:15;;;;;;;0.77;0.77;;;;;;;;;;5012454;28;20216;-76
2021/12/12 10:56:45;;;;;;;0.00;0.00;;;;;;;;;;5009699;28;20203;-74
2021/12/12 10:59:19;;;;;;;0.20;0.20;;;;;;;;;;5010476;28;20205;-74
2021/12/12 11:01:48;;;;;;;0.50;0.50;;;;;;;;;;5011682;28;20200;-75
2021/12/12 11:04:17;;;;;;;0.77;0.77;;;;;;;;;;5009121;28;20212;-74
2021/12/12 11:06:46;;;;;;;1.50;0.70;;;;;;;;;;5011152;28;20209;-70
2021/12/12 11:09:17;;;;;;;1.80;1.70;;;;;;;;;;5011111;28;20205;-79
2021/12/12 11:11:46;;;;;;;0.73;0.73;;;;;;;;;;5015818;28;20235;-74
2021/12/12 11:14:18;;;;;;;0.53;0.53;;;;;;;;;;5013334;28;20197;-76
2021/12/12 11:16:49;;;;;;;0.47;0.47;;;;;;;;;;5011830;28;20802;-76
2021/12/12 11:19:17;;;;;;;0.63;0.63;;;;;;;;;;5011358;28;21001;-76
2021/12/12 11:21:46;;;;;;;0.40;0.40;;;;;;;;;;5004937;28;20216;-75
2021/12/12 11:24:17;;;;;;;2.10;1.60;;;;;;;;;;5001024;28;20584;-75
2021/12/12 11:26:48;;;;;;;2.03;0.50;;;;;;;;;;5002645;28;20704;-75
2021/12/12 11:29:18;;;;;;;3.00;1.87;;;;;;;;;;5005410;28;20205;-76
2021/12/12 11:31:47;;;;;;;1.03;1.03;;;;;;;;;;5005389;28;20232;-75
2021/12/12 11:34:15;;;;;;;1.37;1.27;;;;;;;;;;5004599;28;20213;-74
2021/12/12 11:36:50;;;;;;;1.77;0.83;;;;;;;;;;5005958;28;20826;-75
2021/12/12 11:39:20;;;;;;;1.33;0.93;;;;;;;;;;5005402;28;20200;-76
2021/12/12 11:41:56;;;;;;;4.07;2.03;;;;;;;;;;5005887;28;20702;-75
2021/12/12 11:44:26;;;;;;;2.00;1.37;;;;;;;;;;5009117;28;20207;-74
2021/12/12 11:46:58;;;;;;;0.80;0.80;;;;;;;;;;5008093;28;20196;-71
2021/12/12 11:49:27;;;;;;;2.03;1.27;;;;;;;;;;4999814;28;20207;-72
2021/12/12 11:51:57;;;;;;;1.57;0.97;;;;;;;;;;4996804;28;20701;-75
2021/12/12 11:54:34;;;;;;;5.70;3.47;;;;;;;;;;4997673;28;20205;-72
2021/12/12 11:57:04;;;;;;;1.43;1.23;;;;;;;;;;4996431;28;20204;-71
2021/12/12 11:59:36;;;;;;;1.10;1.03;;;;;;;;;;5001454;28;20546;-73
2021/12/12 12:02:10;;;;;;;3.30;1.97;;;;;;;;;;4998227;28;20213;-72
2021/12/12 12:04:55;;;;;;;1.03;0.97;;;;;;;;;;4998252;28;20205;-71
2021/12/12 12:07:33;;;;;;;0.97;0.97;;;;;;;;;;5004836;28;20209;-77
2021/12/12 12:10:09;;;;;;;3.77;1.53;;;;;;;;;;5007291;28;20209;-75
2021/12/12 12:12:53;;;;;;;1.63;1.37;;;;;;;;;;5008785;28;20648;-77
2021/12/12 12:15:30;;;;;;;1.20;1.10;;;;;;;;;;4996951;28;20288;-76
2021/12/12 12:18:02;;;;;;;3.60;1.57;;;;;;;;;;4996189;28;20223;-76
2021/12/12 12:20:31;;;;;;;0.37;0.37;;;;;;;;;;5008530;28;20572;-76
2021/12/12 12:23:03;;;;;;;5.10;2.60;;;;;;;;;;4998927;28;20470;-75
2021/12/12 12:26:50;;;;;;;4.60;1.77;;;;;;;;;;4997696;28;20267;-77
2021/12/12 12:28:30;;;;;;;2.67;1.40;;;;;;;;;;4995374;28;20295;-75
2021/12/12 12:31:16;;;;;;;1.07;0.57;;;;;;;;;;4994397;28;20294;-78
2021/12/12 12:34:08;;;;;;;3.40;1.30;;;;;;;;;;4995672;28;20236;-78
2021/12/12 12:37:05;;;;;;;0.50;0.50;;;;;;;;;;4986018;28;20204;-79
2021/12/12 12:39:51;;;;;;;15.57;2.93;;;;;;;;;;4996386;28;20197;-79
2021/12/12 12:42:40;;;;;;;10.67;0.87;;;;;;;;;;4994659;28;20241;-77
2021/12/12 12:45:26;;;;;;;3.07;0.80;;;;;;;;;;4995924;28;20209;-77
2021/12/12 12:48:11;;;;;;;0.63;0.63;;;;;;;;;;4994403;28;20209;-78
2021/12/12 12:50:42;;;;;;;0.30;0.30;;;;;;;;;;4995030;28;20208;-78
2021/12/12 12:53:29;;;;;;;0.60;0.60;;;;;;;;;;4994241;28;20701;-76
2021/12/12 12:56:05;;;;;;;2.30;0.90;;;;;;;;;;4994396;28;20209;-78
2021/12/12 12:58:40;;;;;;;6.07;0.93;;;;;;;;;;4995944;28;20217;-76
2021/12/12 13:01:10;;;;;;;1.93;0.90;;;;;;;;;;4995226;28;20823;-78
2021/12/12 13:03:40;;;;;;;2.03;1.80;;;;;;;;;;5005795;28;20662;-70
2021/12/12 13:06:30;;;;;;;1.40;1.13;;;;;;;;;;5008815;28;20204;-74
2021/12/12 13:09:06;;;;;;;1.23;1.13;;;;;;;;;;5003166;28;20209;-72
2021/12/12 13:11:38;;;;;;;4.10;0.50;;;;;;;;;;4997505;28;20662;-75
2021/12/12 13:14:12;;;;;;;1.30;0.53;;;;;;;;;;4995868;28;20561;-72
2021/12/12 13:16:45;;;;;;;1.10;0.80;;;;;;;;;;4998245;28;20201;-76
2021/12/12 13:19:15;;;;;;;1.17;0.93;;;;;;;;;;4999584;28;20213;-73
2021/12/12 13:21:47;;;;;;;2.47;0.73;;;;;;;;;;4997164;28;20213;-74
2021/12/12 13:24:16;;;;;;;9.43;2.27;;;;;;;;;;4994825;28;20209;-75
2021/12/12 13:26:56;;;;;;;3.30;1.50;;;;;;;;;;4994794;28;21543;-71
2021/12/12 13:29:34;;;;;;;5.20;2.40;;;;;;;;;;4994494;28;20203;-71
2021/12/12 13:34:38;;;;;;;1.47;0.90;;;;;;;;;;4672978;26;20243;-71
2021/12/12 13:37:16;;;;;;;0.93;0.57;;;;;;;;;;4992664;28;20655;-73
2021/12/12 13:39:54;;;;;;;3.80;0.90;;;;;;;;;;4989425;28;20300;-68
2021/12/12 13:42:25;;;;;;;4.23;1.23;;;;;;;;;;4987798;28;20216;-69
2021/12/12 13:45:07;;;;;;;3.60;0.77;;;;;;;;;;4989166;28;20244;-72
2021/12/12 13:47:43;;;;;;;0.67;0.53;;;;;;;;;;4986829;28;20192;-80
2021/12/12 13:50:15;;;;;;;0.93;0.47;;;;;;;;;;4996365;28;20285;-83
2021/12/12 13:52:48;;;;;;;0.80;0.80;;;;;;;;;;4987766;28;20240;-74
2021/12/12 13:55:17;;;;;;;8.23;1.80;;;;;;;;;;4987561;28;20211;-74
2021/12/12 13:57:51;;;;;;;0.70;0.70;;;;;;;;;;4991297;28;20205;-75
2021/12/12 14:00:20;;;;;;;2.13;0.83;;;;;;;;;;4994338;28;20286;-77
2021/12/12 14:02:49;;;;;;;13.83;0.87;;;;;;;;;;4995185;28;20323;-76
2021/12/12 14:05:19;;;;;;;0.10;0.10;;;;;;;;;;5005936;28;20677;-76
2021/12/12 14:07:49;;;;;;;0.40;0.40;;;;;;;;;;4995743;28;20208;-78
2021/12/12 14:10:21;;;;;;;0.57;0.57;;;;;;;;;;5003308;28;20208;-70
2021/12/12 14:12:50;;;;;;;0.87;0.87;;;;;;;;;;4999508;28;20232;-71
2021/12/12 14:15:20;;;;;;;0.57;0.57;;;;;;;;;;4979941;28;20216;-69
2021/12/12 14:17:48;;;;;;;10.60;1.70;;;;;;;;;;4983971;28;20213;-68
2021/12/12 14:20:20;;;;;;;0.87;0.57;;;;;;;;;;4985608;28;20210;-68
2021/12/12 14:22:50;;;;;;;1.80;0.53;;;;;;;;;;4987430;28;20214;-67
2021/12/12 14:25:18;;;;;;;0.20;0.17;;;;;;;;;;4988261;28;20674;-71
2021/12/12 14:27:47;;;;;;;5.20;2.03;;;;;;;;;;5000483;28;20213;-71
2021/12/12 14:30:15;;;;;;;10.70;0.83;;;;;;;;;;4997276;28;20213;-69
2021/12/12 14:32:45;;;;;;;4.27;0.67;;;;;;;;;;5000140;28;20233;-71
2021/12/12 14:35:15;;;;;;;0.60;0.60;;;;;;;;;;4992405;28;20205;-68
2021/12/12 14:37:43;;;;;;;4.23;0.87;;;;;;;;;;4991064;28;20283;-69
2021/12/12 14:40:13;;;;;;;0.33;0.33;;;;;;;;;;4992558;28;20201;-71
2021/12/12 14:42:46;;;;;;;0.00;0.00;;;;;;;;;;4988481;28;20205;-72
2021/12/12 14:45:15;;;;;;;0.00;0.00;;;;;;;;;;4990089;28;20212;-68
2021/12/12 14:47:44;;;;;;;0.03;0.03;;;;;;;;;;4991787;28;20213;-72
2021/12/12 14:50:14;;;;;;;0.30;0.23;;;;;;;;;;4997366;28;20208;-70
2021/12/12 14:52:42;;;;;;;0.30;0.30;;;;;;;;;;4988656;28;20228;-74
2021/12/12 14:55:14;;;;;;;0.83;0.10;;;;;;;;;;4990344;28;20212;-70
2021/12/12 14:57:42;;;;;;;0.37;0.37;;;;;;;;;;4989246;28;20248;-69
2021/12/12 15:00:12;;;;;;;0.00;0.00;;;;;;;;;;4986707;28;20214;-71
2021/12/12 15:02:41;;;;;;;1.80;1.07;;;;;;;;;;4990957;28;20212;-72
2021/12/12 15:05:10;;;;;;;0.00;0.00;;;;;;;;;;4988773;28;20216;-71
2021/12/12 15:07:39;;;;;;;1.90;1.07;;;;;;;;;;4992388;28;20780;-73
2021/12/12 15:10:10;;;;;;;0.20;0.20;;;;;;;;;;4992174;28;21636;-75
2021/12/12 15:12:40;;;;;;;0.10;0.10;;;;;;;;;;4988041;28;20268;-67
2021/12/12 15:15:09;;;;;;;0.10;0.10;;;;;;;;;;4988835;28;21502;-70
2021/12/12 15:17:38;;;;;;;0.00;0.00;;;;;;;;;;4990792;28;20193;-70
2021/12/12 15:20:07;;;;;;;0.00;0.00;;;;;;;;;;4989432;28;20213;-74
2021/12/12 15:22:36;;;;;;;0.40;0.40;;;;;;;;;;4989173;28;20224;-70
2021/12/12 15:25:06;;;;;;;1.07;1.07;;;;;;;;;;4993227;28;20575;-73